createdAt,value
2017-06-10T16:46:25.572Z,35.20
2017-06-10T16:48:53.816Z,37.70
2017-06-10T16:51:21.292Z,37.70
2017-06-10T16:53:48.806Z,37.80
2017-06-10T16:56:16.285Z,38.10
2017-06-10T16:58:44.037Z,38.50
2017-06-10T17:01:11.721Z,39.20
2017-06-10T17:03:39.201Z,40.10
2017-06-10T17:06:07.408Z,40.30
2017-06-10T17:08:35.094Z,40.70
2017-06-10T17:11:02.569Z,40.60
2017-06-10T17:13:30.041Z,39.80
2017-06-10T17:15:58.513Z,39.40
2017-06-10T17:18:27.236Z,39.40
2017-06-10T17:20:54.712Z,39.30
2017-06-10T17:23:23.188Z,39.10
2017-06-10T17:25:50.664Z,39.10
2017-06-10T17:28:18.139Z,39.40
2017-06-10T17:30:45.754Z,39.80
2017-06-10T17:33:13.229Z,39.70
2017-06-10T17:35:40.704Z,38.70
2017-06-10T17:38:08.223Z,37.70
2017-06-10T17:40:35.713Z,37.40
2017-06-10T17:43:03.189Z,37.60
2017-06-10T17:45:30.691Z,37.30
2017-06-10T17:47:58.172Z,36.90
2017-06-10T17:50:25.687Z,36.30
2017-06-10T17:52:53.292Z,35.60
2017-06-10T17:55:22.351Z,34.00
2017-06-10T17:57:49.824Z,33.90
2017-06-10T18:00:17.343Z,33.30
2017-06-10T18:02:44.820Z,32.90
2017-06-10T18:05:12.300Z,32.40
2017-06-10T18:07:39.921Z,32.00
2017-06-10T18:10:07.418Z,31.50
2017-06-10T18:12:35.668Z,30.80
2017-06-10T18:15:03.197Z,30.80
2017-06-10T18:17:30.696Z,30.50
2017-06-10T18:19:58.181Z,30.30
2017-06-10T18:22:25.797Z,30.20
2017-06-10T18:24:53.278Z,30.00
2017-06-10T18:27:20.745Z,29.70
2017-06-10T18:29:49.029Z,29.10
2017-06-10T18:32:16.502Z,29.10
2017-06-10T18:34:43.976Z,28.80
2017-06-10T18:37:11.540Z,28.50
2017-06-10T18:39:39.809Z,28.00
2017-06-10T18:42:08.046Z,27.70
2017-06-10T18:44:36.429Z,27.40
2017-06-10T18:47:03.972Z,27.40
2017-06-10T18:49:31.615Z,27.20
2017-06-10T18:51:59.898Z,26.50
2017-06-10T18:54:27.430Z,26.50
2017-06-10T18:56:54.973Z,26.30
2017-06-10T18:59:22.752Z,26.00
2017-06-10T19:01:50.231Z,25.80
2017-06-10T19:04:17.711Z,25.70
2017-06-10T19:06:45.334Z,25.50
2017-06-10T19:09:13.584Z,25.10
2017-06-10T19:11:41.829Z,25.00
2017-06-10T19:14:09.513Z,24.90
2017-06-10T19:16:37.002Z,24.80
2017-06-10T19:19:04.477Z,24.80
2017-06-10T19:21:33.061Z,24.60
2017-06-10T19:24:01.309Z,24.50
2017-06-10T19:26:29.564Z,24.30
2017-06-10T19:28:58.044Z,24.10
2017-06-10T19:31:26.297Z,24.00
2017-06-10T19:33:54.542Z,23.90
2017-06-10T19:36:22.173Z,23.90
2017-06-10T19:38:49.651Z,23.80
2017-06-10T19:41:17.132Z,23.60
2017-06-10T19:43:44.750Z,23.50
2017-06-10T19:46:13.010Z,23.30
2017-06-10T19:48:41.260Z,23.20
2017-06-10T19:51:09.557Z,23.20
2017-06-10T19:53:37.037Z,23.10
2017-06-10T19:56:04.516Z,23.10
2017-06-10T19:58:32.800Z,23.00
2017-06-10T20:01:00.379Z,22.90
2017-06-10T20:03:27.887Z,22.90
2017-06-10T20:05:55.405Z,22.80
2017-06-10T20:08:22.890Z,22.70
2017-06-10T20:10:50.364Z,22.70
2017-06-10T20:13:17.869Z,22.60
2017-06-10T20:15:45.349Z,22.60
2017-06-10T20:18:12.828Z,22.50
2017-06-10T20:20:40.452Z,22.40
2017-06-10T20:23:08.706Z,22.30
2017-06-10T20:25:36.953Z,22.20
2017-06-10T20:28:04.437Z,22.20
2017-06-10T20:30:31.916Z,22.20
2017-06-10T20:32:59.533Z,22.20
2017-06-10T20:35:27.012Z,22.10
2017-06-10T20:37:54.485Z,22.00
2017-06-10T20:40:22.009Z,22.00
2017-06-10T20:42:49.480Z,22.00
2017-06-10T20:45:17.960Z,21.90
2017-06-10T20:47:45.728Z,21.80
2017-06-10T20:50:13.202Z,21.80
2017-06-10T20:52:40.682Z,21.80
2017-06-10T20:55:08.308Z,21.70
2017-06-10T20:57:35.837Z,21.70
2017-06-10T21:00:03.327Z,21.60
2017-06-10T21:02:31.605Z,21.50
2017-06-10T21:04:59.085Z,21.50
2017-06-10T21:07:26.579Z,21.40
2017-06-10T21:09:54.985Z,21.30
2017-06-10T21:12:22.469Z,21.30
2017-06-10T21:14:49.941Z,21.30
2017-06-10T21:17:17.424Z,21.20
2017-06-10T21:19:44.905Z,21.20
2017-06-10T21:22:13.301Z,21.20
2017-06-10T21:24:40.791Z,21.20
2017-06-10T21:27:08.272Z,21.10
2017-06-10T21:29:36.017Z,21.10
2017-06-10T21:32:03.501Z,21.10
2017-06-10T21:34:30.984Z,21.10
2017-06-10T21:36:59.363Z,21.00
2017-06-10T21:39:26.849Z,21.00
2017-06-10T21:41:54.326Z,21.00
2017-06-10T21:44:21.828Z,21.00
2017-06-10T21:46:49.310Z,21.00
2017-06-10T21:49:17.563Z,20.90
2017-06-10T21:51:45.073Z,20.90
2017-06-10T21:54:12.561Z,20.90
2017-06-10T21:56:40.814Z,20.80
2017-06-10T21:59:09.524Z,20.80
2017-06-10T22:01:37.002Z,20.80
2017-06-10T22:04:04.484Z,20.80
2017-06-10T22:06:32.119Z,20.80
2017-06-10T22:09:00.369Z,20.70
2017-06-10T22:11:27.853Z,20.70
2017-06-10T22:13:55.383Z,20.70
2017-06-10T22:16:22.956Z,20.60
2017-06-10T22:18:50.432Z,20.60
2017-06-10T22:21:18.061Z,20.50
2017-06-10T22:23:45.545Z,20.50
2017-06-10T22:26:13.787Z,20.30
2017-06-10T22:28:42.183Z,20.30
2017-06-10T22:31:09.724Z,20.30
2017-06-10T22:33:37.205Z,20.30
2017-06-10T22:36:04.724Z,20.20
2017-06-10T22:38:32.256Z,20.20
2017-06-10T22:40:59.807Z,20.10
2017-06-10T22:43:27.341Z,20.00
2017-06-10T22:45:54.824Z,20.00
2017-06-10T22:48:22.347Z,19.90
2017-06-10T22:50:49.867Z,19.90
2017-06-10T22:53:17.409Z,19.90
2017-06-10T22:55:44.956Z,19.90
2017-06-10T22:58:12.517Z,19.80
2017-06-10T23:00:39.992Z,19.80
2017-06-10T23:03:07.477Z,19.80
2017-06-10T23:05:35.004Z,19.80
2017-06-10T23:08:03.276Z,19.70
2017-06-10T23:10:31.537Z,19.70
2017-06-10T23:12:59.086Z,19.70
2017-06-10T23:15:26.595Z,19.70
2017-06-10T23:17:54.174Z,19.60
2017-06-10T23:20:21.682Z,19.60
2017-06-10T23:22:49.260Z,19.50
2017-06-10T23:25:16.744Z,19.50
2017-06-10T23:27:44.556Z,19.50
2017-06-10T23:30:12.041Z,19.50
2017-06-10T23:32:39.520Z,19.40
2017-06-10T23:35:07.928Z,19.40
2017-06-10T23:37:35.412Z,19.30
2017-06-10T23:40:02.892Z,19.40
2017-06-10T23:42:31.249Z,19.30
2017-06-10T23:44:58.737Z,19.30
2017-06-10T23:47:26.212Z,19.30
2017-06-10T23:49:54.500Z,19.20
2017-06-10T23:52:21.977Z,19.20
2017-06-10T23:54:49.465Z,19.20
2017-06-10T23:57:16.996Z,19.10
2017-06-10T23:59:44.476Z,19.10
